createdAt,value
2018-11-04T00:02:05.472Z,14.43
2018-11-04T00:04:33.779Z,14.46
2018-11-04T00:07:03.029Z,14.43
2018-11-04T00:09:32.319Z,14.39
2018-11-04T00:12:00.612Z,14.36
2018-11-04T00:14:28.872Z,14.39
2018-11-04T00:16:57.146Z,14.53
2018-11-04T00:19:25.391Z,14.52
2018-11-04T00:21:53.654Z,14.41
2018-11-04T00:24:21.961Z,14.33
2018-11-04T00:26:50.226Z,14.30
2018-11-04T00:29:19.453Z,14.32
2018-11-04T00:31:47.677Z,14.34
2018-11-04T00:34:15.933Z,14.29
2018-11-04T00:36:44.184Z,14.21
2018-11-04T00:39:13.514Z,14.30
2018-11-04T00:41:41.747Z,14.32
2018-11-04T00:44:10.940Z,14.47
2018-11-04T00:46:39.211Z,14.53
2018-11-04T00:49:07.826Z,14.56
2018-11-04T00:51:36.031Z,14.47
2018-11-04T00:54:04.292Z,14.38
2018-11-04T00:56:32.598Z,14.40
2018-11-04T00:59:00.828Z,14.46
2018-11-04T01:01:29.389Z,14.46
2018-11-04T01:03:57.607Z,14.70
2018-11-04T01:06:25.872Z,14.69
2018-11-04T01:08:54.437Z,14.70
2018-11-04T01:11:22.773Z,14.68
2018-11-04T01:13:50.973Z,14.60
2018-11-04T01:16:19.184Z,14.68
2018-11-04T01:18:54.103Z,14.65
2018-11-04T01:21:22.311Z,14.58
2018-11-04T01:23:50.520Z,14.51
2018-11-04T01:26:18.738Z,14.38
2018-11-04T01:28:47.228Z,14.33
2018-11-04T01:37:29.761Z,14.20
2018-11-04T01:39:57.978Z,14.29
2018-11-04T01:42:26.216Z,14.22
2018-11-04T01:44:54.430Z,14.19
2018-11-04T01:47:22.650Z,14.14
2018-11-04T01:49:50.856Z,14.12
2018-11-04T01:52:19.091Z,14.11
2018-11-04T01:54:47.306Z,14.15
2018-11-04T01:57:15.515Z,14.16
2018-11-04T01:59:43.715Z,14.14
2018-11-04T02:02:11.913Z,14.22
2018-11-04T02:04:40.123Z,14.24
2018-11-04T02:07:08.343Z,14.21
2018-11-04T02:09:36.589Z,14.23
2018-11-04T02:12:05.375Z,14.27
2018-11-04T02:14:33.588Z,14.29
2018-11-04T02:17:01.822Z,14.24
2018-11-04T02:19:30.045Z,14.38
2018-11-04T02:21:58.269Z,14.38
2018-11-04T02:24:26.480Z,14.26
2018-11-04T02:26:54.686Z,14.29
2018-11-04T02:29:22.910Z,14.49
2018-11-04T02:31:51.116Z,14.44
2018-11-04T02:34:19.303Z,14.55
2018-11-04T02:36:47.503Z,14.50
2018-11-04T02:39:15.703Z,14.36
2018-11-04T02:41:43.914Z,14.33
2018-11-04T02:44:12.141Z,14.31
2018-11-04T02:46:40.375Z,14.29
2018-11-04T02:49:08.621Z,14.23
2018-11-04T02:51:36.870Z,14.37
2018-11-04T02:54:05.076Z,14.31
2018-11-04T02:56:33.277Z,14.39
2018-11-04T02:59:01.838Z,14.35
2018-11-04T03:01:30.072Z,14.24
2018-11-04T03:03:58.288Z,14.15
2018-11-04T03:06:26.556Z,14.13
2018-11-04T03:08:55.843Z,14.23
2018-11-04T03:11:24.061Z,14.26
2018-11-04T03:13:52.265Z,14.25
2018-11-04T03:16:20.448Z,14.19
2018-11-04T03:18:48.761Z,14.26
2018-11-04T03:21:17.358Z,14.19
2018-11-04T03:23:45.593Z,14.08
2018-11-04T03:26:13.891Z,14.19
2018-11-04T03:31:16.606Z,14.41
2018-11-04T03:33:44.831Z,14.37
2018-11-04T03:36:13.050Z,14.33
2018-11-04T03:38:41.266Z,14.28
2018-11-04T03:41:09.506Z,14.25
2018-11-04T03:43:37.691Z,14.33
2018-11-04T03:46:06.251Z,14.27
2018-11-04T03:48:34.456Z,14.25
2018-11-04T03:51:02.668Z,14.15
2018-11-04T03:53:30.855Z,14.13
2018-11-04T03:55:59.098Z,14.07
2018-11-04T03:58:27.306Z,14.17
2018-11-04T04:00:55.903Z,14.21
2018-11-04T04:03:24.108Z,14.23
2018-11-04T04:05:52.357Z,14.44
2018-11-04T04:08:20.578Z,14.50
2018-11-04T04:10:48.784Z,14.58
2018-11-04T04:13:16.972Z,14.68
2018-11-04T04:15:45.171Z,14.79
2018-11-04T04:18:13.372Z,14.65
2018-11-04T04:20:41.666Z,14.59
2018-11-04T04:23:09.860Z,14.59
2018-11-04T04:25:38.089Z,14.73
2018-11-04T04:28:08.810Z,14.74
2018-11-04T04:30:39.433Z,14.61
2018-11-04T04:33:07.654Z,14.60
2018-11-04T04:35:35.845Z,14.54
2018-11-04T04:38:04.907Z,14.59
2018-11-04T04:40:33.099Z,14.51
2018-11-04T04:43:01.318Z,14.45
2018-11-04T04:45:29.519Z,14.46
2018-11-04T04:47:57.725Z,14.47
2018-11-04T04:50:25.912Z,14.42
2018-11-04T04:52:54.095Z,14.41
2018-11-04T04:55:22.306Z,14.53
2018-11-04T04:57:50.502Z,14.56
2018-11-04T05:00:19.744Z,14.80
2018-11-04T05:02:47.970Z,14.74
2018-11-04T05:05:17.160Z,14.58
2018-11-04T05:07:45.352Z,14.36
2018-11-04T05:10:13.572Z,14.26
2018-11-04T05:12:42.043Z,14.16
2018-11-04T05:15:10.245Z,14.14
2018-11-04T05:17:38.435Z,14.10
2018-11-04T05:20:06.675Z,14.11
2018-11-04T05:22:34.895Z,14.16
2018-11-04T05:25:03.105Z,14.20
2018-11-04T05:27:31.312Z,14.15
2018-11-04T05:29:59.538Z,14.11
2018-11-04T05:32:27.739Z,14.14
2018-11-04T05:34:55.934Z,14.18
2018-11-04T05:37:24.148Z,14.18
2018-11-04T05:39:52.358Z,14.21
2018-11-04T05:42:20.567Z,14.24
2018-11-04T05:44:48.767Z,14.24
2018-11-04T05:47:17.003Z,14.27
2018-11-04T05:49:45.257Z,14.25
2018-11-04T05:52:13.516Z,14.23
2018-11-04T05:54:41.718Z,14.23
2018-11-04T05:57:10.290Z,14.25
2018-11-04T05:59:38.758Z,14.13
2018-11-04T06:02:06.971Z,14.04
2018-11-04T06:04:35.218Z,13.93
2018-11-04T06:07:03.444Z,13.87
2018-11-04T06:09:31.637Z,13.79
2018-11-04T06:12:00.956Z,13.77
2018-11-04T06:14:29.153Z,13.79
2018-11-04T06:16:57.369Z,13.80
2018-11-04T06:19:25.627Z,13.87
2018-11-04T06:21:53.841Z,13.86
2018-11-04T06:24:22.041Z,13.84
2018-11-04T06:26:50.250Z,13.87
2018-11-04T06:29:18.468Z,13.89
2018-11-04T06:31:46.686Z,13.85
2018-11-04T06:34:14.900Z,13.86
2018-11-04T06:36:43.103Z,13.94
2018-11-04T06:39:11.758Z,13.97
2018-11-04T06:41:39.991Z,14.09
2018-11-04T06:44:08.205Z,14.28
2018-11-04T06:46:36.461Z,14.44
2018-11-04T06:49:04.696Z,14.60
2018-11-04T06:51:32.923Z,14.57
2018-11-04T06:54:01.122Z,14.55
2018-11-04T06:56:29.343Z,14.52
2018-11-04T06:58:57.570Z,14.48
2018-11-04T07:01:25.771Z,14.41
2018-11-04T07:03:54.005Z,14.58
2018-11-04T07:06:22.208Z,14.54
2018-11-04T07:08:50.459Z,14.61
2018-11-04T07:11:18.701Z,14.98
2018-11-04T07:13:47.354Z,14.94
2018-11-04T07:16:15.589Z,14.82
2018-11-04T07:18:43.793Z,14.71
2018-11-04T07:21:12.018Z,14.66
2018-11-04T07:23:40.218Z,14.74
2018-11-04T07:26:08.443Z,14.78
2018-11-04T07:28:36.651Z,14.69
2018-11-04T07:31:04.893Z,14.68
2018-11-04T07:33:33.099Z,14.87
2018-11-04T07:36:01.389Z,14.78
2018-11-04T07:38:29.633Z,14.83
2018-11-04T07:40:57.833Z,14.83
2018-11-04T07:43:26.051Z,15.04
2018-11-04T07:45:54.242Z,14.92
2018-11-04T07:48:22.448Z,14.95
2018-11-04T07:50:50.677Z,14.87
2018-11-04T07:53:18.906Z,14.89
2018-11-04T07:55:47.119Z,14.87
2018-11-04T07:58:15.323Z,14.84
2018-11-04T08:00:43.607Z,14.83
2018-11-04T08:03:11.761Z,14.86
2018-11-04T08:05:39.985Z,14.87
2018-11-04T08:08:08.262Z,14.93
2018-11-04T08:10:36.479Z,15.01
2018-11-04T08:13:05.111Z,15.06
2018-11-04T08:15:33.346Z,15.17
2018-11-04T08:18:01.710Z,15.29
2018-11-04T08:20:30.123Z,15.44
2018-11-04T08:22:58.501Z,15.41
2018-11-04T08:25:26.836Z,15.16
2018-11-04T08:27:55.336Z,14.93
2018-11-04T08:30:23.648Z,14.78
2018-11-04T08:32:52.254Z,14.88
2018-11-04T08:35:20.653Z,14.86
2018-11-04T08:37:49.122Z,14.77
2018-11-04T08:40:17.785Z,14.80
2018-11-04T08:42:46.274Z,15.14
2018-11-04T08:45:14.753Z,15.12
2018-11-04T08:47:43.109Z,14.93
2018-11-04T08:50:12.583Z,14.81
2018-11-04T08:52:41.004Z,14.78
2018-11-04T08:55:09.374Z,14.79
2018-11-04T08:57:37.769Z,14.85
2018-11-04T09:00:06.352Z,14.92
2018-11-04T09:02:34.683Z,14.98
2018-11-04T09:05:03.115Z,15.04
2018-11-04T09:07:32.613Z,15.06
2018-11-04T09:10:01.096Z,15.06
2018-11-04T09:12:29.779Z,15.00
2018-11-04T09:14:58.255Z,14.90
2018-11-04T09:17:26.946Z,14.89
2018-11-04T09:19:55.575Z,14.82
2018-11-04T09:22:24.222Z,14.82
2018-11-04T09:24:52.551Z,14.84
2018-11-04T09:27:20.917Z,14.78
2018-11-04T09:29:49.268Z,14.77
2018-11-04T09:32:17.815Z,14.82
2018-11-04T09:34:46.322Z,14.89
2018-11-04T09:37:14.689Z,14.96
2018-11-04T09:39:43.168Z,15.04
2018-11-04T09:42:11.653Z,15.14
2018-11-04T09:44:40.146Z,15.25
2018-11-04T09:47:08.543Z,15.44
2018-11-04T09:49:36.963Z,15.53
2018-11-04T09:52:05.577Z,15.57
2018-11-04T09:54:34.056Z,15.61
2018-11-04T09:57:02.536Z,15.50
2018-11-04T09:59:31.014Z,15.36
2018-11-04T10:01:59.502Z,15.26
2018-11-04T10:04:27.990Z,15.43
2018-11-04T10:06:57.079Z,15.54
2018-11-04T10:09:25.658Z,15.94
2018-11-04T10:11:54.007Z,16.01
2018-11-04T10:14:22.618Z,15.89
2018-11-04T10:16:51.683Z,15.86
2018-11-04T10:19:20.265Z,15.75
2018-11-04T10:21:48.661Z,15.66
2018-11-04T10:24:17.049Z,15.97
2018-11-04T10:26:45.423Z,15.82
2018-11-04T10:29:14.013Z,15.82
2018-11-04T10:31:42.502Z,15.67
2018-11-04T10:34:10.873Z,15.76
2018-11-04T10:36:39.504Z,15.67
2018-11-04T10:39:08.044Z,15.54
2018-11-04T10:41:36.528Z,15.49
2018-11-04T10:44:05.106Z,15.56
2018-11-04T10:46:34.225Z,15.72
2018-11-04T10:49:02.792Z,15.85
2018-11-04T10:51:31.279Z,15.90
2018-11-04T10:54:00.587Z,15.73
2018-11-04T10:56:30.075Z,15.84
2018-11-04T10:58:58.711Z,15.79
2018-11-04T11:01:27.251Z,15.72
2018-11-04T11:03:55.816Z,15.70
2018-11-04T11:06:24.391Z,15.82
2018-11-04T11:08:52.978Z,16.29
2018-11-04T11:11:21.410Z,16.77
2018-11-04T11:13:49.861Z,17.36
2018-11-04T11:16:18.626Z,17.43
2018-11-04T11:18:47.311Z,17.38
2018-11-04T11:21:15.792Z,17.24
2018-11-04T11:23:44.471Z,17.31
2018-11-04T11:26:13.061Z,17.20
2018-11-04T11:28:41.758Z,17.18
2018-11-04T11:31:11.346Z,17.32
2018-11-04T11:33:39.816Z,17.32
2018-11-04T11:36:08.423Z,17.31
2018-11-04T11:38:36.896Z,17.45
2018-11-04T11:41:05.370Z,17.46
2018-11-04T11:43:33.866Z,17.59
2018-11-04T11:46:02.286Z,17.69
2018-11-04T11:48:30.724Z,17.80
2018-11-04T11:50:59.315Z,17.64
2018-11-04T11:53:27.780Z,17.71
2018-11-04T11:55:56.261Z,17.63
2018-11-04T11:58:25.601Z,17.62
2018-11-04T12:00:54.127Z,17.30
2018-11-04T12:03:22.554Z,17.33
2018-11-04T12:05:51.032Z,17.18
2018-11-04T12:08:19.587Z,17.33
2018-11-04T12:10:47.972Z,17.23
2018-11-04T12:13:16.307Z,17.16
2018-11-04T12:15:44.827Z,17.20
2018-11-04T12:18:13.308Z,17.19
2018-11-04T12:20:41.793Z,17.09
2018-11-04T12:23:10.368Z,17.06
2018-11-04T12:25:38.852Z,16.97
2018-11-04T12:28:07.335Z,16.82
2018-11-04T12:30:35.908Z,16.82
2018-11-04T12:33:04.269Z,16.66
2018-11-04T12:35:32.780Z,16.62
2018-11-04T12:38:01.212Z,16.68
2018-11-04T12:40:29.724Z,16.51
2018-11-04T12:42:58.333Z,16.38
2018-11-04T12:45:26.849Z,16.26
2018-11-04T12:47:55.280Z,16.24
2018-11-04T12:50:23.764Z,16.16
2018-11-04T12:52:52.242Z,16.07
2018-11-04T12:55:21.206Z,16.05
2018-11-04T12:57:49.577Z,16.06
2018-11-04T13:00:17.987Z,16.06
2018-11-04T13:02:46.578Z,15.90
2018-11-04T13:05:15.163Z,15.72
2018-11-04T13:07:43.636Z,15.56
2018-11-04T13:10:12.399Z,15.49
2018-11-04T13:12:40.804Z,15.48
2018-11-04T13:15:09.294Z,15.55
2018-11-04T13:17:37.734Z,15.63
2018-11-04T13:20:06.375Z,15.65
2018-11-04T13:22:34.820Z,15.65
2018-11-04T13:25:03.413Z,15.63
2018-11-04T13:27:31.912Z,15.64
2018-11-04T13:30:00.596Z,15.71
2018-11-04T13:32:29.860Z,15.67
2018-11-04T13:34:58.370Z,15.68
2018-11-04T13:37:26.993Z,15.61
2018-11-04T13:39:55.622Z,15.58
2018-11-04T13:42:24.354Z,15.58
2018-11-04T13:44:52.904Z,15.57
2018-11-04T13:47:21.522Z,15.54
2018-11-04T13:49:50.230Z,15.59
2018-11-04T13:52:18.919Z,15.51
2018-11-04T13:54:47.537Z,15.51
2018-11-04T13:57:16.216Z,15.50
2018-11-04T13:59:44.904Z,15.49
2018-11-04T14:02:13.507Z,15.53
2018-11-04T14:04:42.722Z,15.51
2018-11-04T14:07:11.778Z,15.53
2018-11-04T14:09:40.779Z,15.57
2018-11-04T14:12:09.581Z,15.53
2018-11-04T14:14:38.350Z,15.57
2018-11-04T14:17:07.391Z,15.66
2018-11-04T14:19:35.933Z,15.61
2018-11-04T14:22:04.608Z,15.57
2018-11-04T14:24:34.188Z,15.49
2018-11-04T14:27:04.293Z,15.44
2018-11-04T14:29:34.043Z,15.37
2018-11-04T14:32:03.163Z,15.30
2018-11-04T14:34:31.848Z,15.41
2018-11-04T14:37:00.513Z,15.48
2018-11-04T14:39:29.223Z,15.48
2018-11-04T14:41:58.919Z,15.47
2018-11-04T14:44:27.823Z,15.40
2018-11-04T14:46:56.258Z,15.35
2018-11-04T14:49:24.968Z,15.32
2018-11-04T14:51:53.747Z,15.30
2018-11-04T14:54:22.335Z,15.25
2018-11-04T14:56:51.000Z,15.26
2018-11-04T14:59:19.808Z,15.29
2018-11-04T15:01:48.565Z,15.37
2018-11-04T15:04:17.073Z,15.45
2018-11-04T15:06:45.969Z,15.39
2018-11-04T15:09:14.656Z,15.35
2018-11-04T15:11:43.336Z,15.39
2018-11-04T15:14:12.026Z,15.28
2018-11-04T15:16:40.622Z,15.24
2018-11-04T15:19:09.363Z,15.26
2018-11-04T15:21:37.975Z,15.37
2018-11-04T15:24:06.557Z,15.39
2018-11-04T15:26:35.321Z,15.30
2018-11-04T15:29:03.933Z,15.19
2018-11-04T15:31:32.460Z,15.08
2018-11-04T15:34:01.158Z,14.88
2018-11-04T15:36:29.692Z,14.79
2018-11-04T15:38:58.350Z,14.65
2018-11-04T15:41:26.948Z,14.52
2018-11-04T15:43:57.125Z,14.42
2018-11-04T15:46:26.060Z,14.32
2018-11-04T15:48:55.099Z,14.28
2018-11-04T15:51:24.108Z,14.27
2018-11-04T15:53:52.833Z,14.24
2018-11-04T15:56:21.533Z,14.18
2018-11-04T15:58:50.413Z,14.20
2018-11-04T16:01:18.887Z,14.22
2018-11-04T16:03:47.969Z,14.16
2018-11-04T16:06:16.678Z,14.09
2018-11-04T16:08:45.148Z,14.03
2018-11-04T16:11:13.606Z,14.00
2018-11-04T16:13:42.248Z,13.98
2018-11-04T16:16:11.205Z,13.96
2018-11-04T16:18:39.977Z,13.97
2018-11-04T16:21:08.985Z,14.02
2018-11-04T16:23:37.979Z,14.06
2018-11-04T16:26:06.886Z,14.06
2018-11-04T16:28:35.475Z,14.05
2018-11-04T16:31:03.909Z,14.06
2018-11-04T16:33:32.540Z,14.06
2018-11-04T16:36:01.204Z,14.01
2018-11-04T16:38:29.965Z,13.99
2018-11-04T16:40:58.574Z,13.97
2018-11-04T16:43:27.192Z,14.00
2018-11-04T16:45:55.744Z,14.02
2018-11-04T16:48:24.440Z,14.02
2018-11-04T16:50:53.230Z,14.04
2018-11-04T16:53:22.065Z,13.98
2018-11-04T16:55:50.687Z,13.88
2018-11-04T16:58:19.168Z,13.84
2018-11-04T17:00:48.426Z,13.89
2018-11-04T17:03:16.956Z,13.99
2018-11-04T17:05:45.705Z,14.02
2018-11-04T17:08:14.357Z,13.98
2018-11-04T17:10:44.748Z,14.04
2018-11-04T17:13:13.940Z,14.03
2018-11-04T17:15:43.299Z,14.04
2018-11-04T17:18:12.405Z,14.01
2018-11-04T17:20:41.356Z,13.94
2018-11-04T17:23:11.251Z,14.09
2018-11-04T17:25:40.631Z,14.12
2018-11-04T17:28:09.728Z,14.07
2018-11-04T17:30:39.398Z,14.06
2018-11-04T17:33:08.914Z,14.22
2018-11-04T17:35:38.881Z,14.19
2018-11-04T17:38:09.309Z,14.19
2018-11-04T17:40:38.599Z,14.10
2018-11-04T17:43:07.373Z,14.15
2018-11-04T17:45:36.345Z,14.17
2018-11-04T17:48:05.268Z,14.15
2018-11-04T17:50:34.311Z,14.15
2018-11-04T17:53:03.350Z,14.26
2018-11-04T17:55:33.409Z,14.18
2018-11-04T17:58:02.814Z,14.13
2018-11-04T18:00:31.668Z,14.13
2018-11-04T18:03:00.348Z,14.12
2018-11-04T18:05:29.136Z,14.08
2018-11-04T18:07:57.775Z,13.97
2018-11-04T18:10:26.409Z,13.93
2018-11-04T18:12:54.851Z,13.90
2018-11-04T18:15:23.373Z,13.89
2018-11-04T18:17:51.771Z,13.84
2018-11-04T18:20:20.396Z,13.84
2018-11-04T18:22:49.113Z,13.86
2018-11-04T18:25:18.930Z,13.89
2018-11-04T18:27:48.003Z,13.88
2018-11-04T18:30:16.716Z,13.88
2018-11-04T18:32:45.604Z,13.81
2018-11-04T18:35:14.289Z,13.81
2018-11-04T18:37:42.865Z,13.81
2018-11-04T18:40:11.455Z,13.72
2018-11-04T18:42:40.452Z,13.63
2018-11-04T18:45:09.393Z,13.54
2018-11-04T18:47:37.913Z,13.48
2018-11-04T18:50:06.906Z,13.43
2018-11-04T18:52:35.893Z,13.37
2018-11-04T18:55:04.699Z,13.28
2018-11-04T18:57:33.895Z,13.21
2018-11-04T19:00:02.898Z,13.17
2018-11-04T19:02:31.718Z,13.17
2018-11-04T19:05:00.357Z,13.18
2018-11-04T19:07:28.943Z,13.17
2018-11-04T19:09:57.575Z,13.15
2018-11-04T19:12:26.306Z,13.12
2018-11-04T19:14:55.008Z,13.14
2018-11-04T19:17:23.490Z,13.16
2018-11-04T19:19:52.311Z,13.19
2018-11-04T19:22:21.046Z,13.18
2018-11-04T19:24:50.560Z,13.19
2018-11-04T19:27:19.242Z,13.18
2018-11-04T19:29:48.016Z,13.20
2018-11-04T19:32:16.762Z,13.17
2018-11-04T19:34:45.752Z,13.17
2018-11-04T19:37:14.586Z,13.19
2018-11-04T19:39:43.284Z,13.21
2018-11-04T19:42:12.173Z,13.23
2018-11-04T19:44:40.897Z,13.20
2018-11-04T19:47:09.549Z,13.20
2018-11-04T19:49:38.236Z,13.19
2018-11-04T19:52:07.669Z,13.18
2018-11-04T19:54:36.488Z,13.16
2018-11-04T19:57:05.517Z,13.20
2018-11-04T19:59:34.513Z,13.20
2018-11-04T20:02:04.211Z,13.19
2018-11-04T20:04:32.912Z,13.20
2018-11-04T20:07:02.700Z,13.21
2018-11-04T20:09:31.294Z,13.24
2018-11-04T20:11:59.980Z,13.26
2018-11-04T20:14:28.575Z,13.23
2018-11-04T20:16:57.252Z,13.22
2018-11-04T20:19:31.540Z,13.22
2018-11-04T20:22:00.335Z,13.22
2018-11-04T20:24:30.406Z,13.20
2018-11-04T20:26:59.494Z,13.25
2018-11-04T20:29:28.710Z,13.26
2018-11-04T20:31:57.710Z,13.26
2018-11-04T20:34:26.448Z,13.25
2018-11-04T20:36:55.571Z,13.28
2018-11-04T20:39:24.318Z,13.30
2018-11-04T20:41:53.418Z,13.26
2018-11-04T20:44:22.863Z,13.23
2018-11-04T20:46:53.849Z,13.26
2018-11-04T21:34:08.265Z,12.95
2018-11-04T21:36:37.006Z,13.01
2018-11-04T21:39:05.915Z,12.94
2018-11-04T21:41:34.567Z,12.86
2018-11-04T21:44:03.805Z,12.80
2018-11-04T21:46:32.450Z,12.82
2018-11-04T21:49:01.815Z,12.74
2018-11-04T21:51:30.541Z,12.62
2018-11-04T21:53:59.530Z,12.56
2018-11-04T21:56:28.906Z,12.57
2018-11-04T21:58:57.823Z,12.59
2018-11-04T22:01:26.319Z,12.63
2018-11-04T22:03:55.774Z,12.65
2018-11-04T22:06:23.794Z,12.67
2018-11-04T22:08:52.566Z,12.71
2018-11-04T22:11:21.356Z,12.73
2018-11-04T22:13:50.956Z,12.72
2018-11-04T22:16:19.475Z,12.71
2018-11-04T22:18:48.031Z,12.69
2018-11-04T22:21:16.865Z,12.63
2018-11-04T22:23:45.603Z,12.55
2018-11-04T22:26:14.269Z,12.51
2018-11-04T22:28:43.025Z,12.45
2018-11-04T22:31:11.656Z,12.62
2018-11-04T22:33:40.099Z,12.50
2018-11-04T22:36:08.600Z,12.34
2018-11-04T22:38:37.115Z,12.25
2018-11-04T22:41:06.681Z,12.22
2018-11-04T22:43:35.426Z,12.29
2018-11-04T22:46:03.983Z,12.27
2018-11-04T22:48:32.995Z,12.30
2018-11-04T22:51:01.754Z,12.19
2018-11-04T22:53:32.748Z,12.30
2018-11-04T22:56:02.170Z,12.24
2018-11-04T22:58:30.584Z,12.16
2018-11-04T23:00:59.772Z,12.12
2018-11-04T23:03:28.564Z,12.10
2018-11-04T23:05:57.148Z,12.16
2018-11-04T23:08:25.539Z,12.18
2018-11-04T23:10:53.911Z,12.14
2018-11-04T23:13:22.346Z,12.13
2018-11-04T23:15:50.813Z,12.11
2018-11-04T23:18:19.393Z,12.05
2018-11-04T23:20:47.786Z,12.00
2018-11-04T23:23:16.406Z,12.04
2018-11-04T23:25:44.991Z,12.10
2018-11-04T23:28:13.616Z,12.09
2018-11-04T23:30:42.070Z,12.00
2018-11-04T23:33:10.526Z,11.97
2018-11-04T23:35:39.014Z,11.92
2018-11-04T23:38:07.589Z,11.95
2018-11-04T23:40:36.087Z,11.96
2018-11-04T23:43:04.723Z,12.13
2018-11-04T23:45:33.241Z,12.05
2018-11-04T23:48:01.723Z,12.03
2018-11-04T23:50:30.115Z,12.00
2018-11-04T23:52:58.588Z,11.96
2018-11-04T23:55:27.071Z,11.93
2018-11-04T23:57:55.648Z,11.93
